Time;durP1;ratioP1;P1;durP2;ratioP2;P2;SDS_P1;SDS_P2;PMS_P1;PMS_P2;Temp;Humidity;BMP_temperature;BMP_pressure;BME280_temperature;BME280_humidity;BME280_pressure;Samples;Min_cycle;Max_cycle;Signal;HPM_P1;HPM_P2
2022/11/21 00:00:29;;;;;;;6.37;3.63;;;2.40;99.90;;;;;;5022396;28;21295;-90
2022/11/21 00:02:59;;;;;;;2.67;2.03;;;2.40;99.90;;;;;;5036192;28;20234;-90
2022/11/21 00:05:25;;;;;;;3.83;2.73;;;2.40;99.90;;;;;;5035522;28;20210;-90
2022/11/21 00:07:51;;;;;;;4.10;3.70;;;2.50;99.90;;;;;;5019008;28;20209;-90
2022/11/21 00:10:17;;;;;;;4.67;4.20;;;2.50;99.90;;;;;;5021108;28;20309;-90
2022/11/21 00:12:43;;;;;;;3.03;2.37;;;2.60;99.90;;;;;;5021214;28;20188;-91
2022/11/21 00:15:09;;;;;;;6.20;2.90;;;2.60;99.90;;;;;;5021778;28;20328;-92
2022/11/21 00:17:35;;;;;;;2.50;2.00;;;2.50;99.90;;;;;;5020021;28;20583;-90
2022/11/21 00:20:00;;;;;;;3.10;2.80;;;2.50;99.90;;;;;;5020106;28;20218;-90
2022/11/21 00:22:26;;;;;;;5.87;2.37;;;2.50;99.90;;;;;;5002798;28;20218;-90
2022/11/21 00:24:52;;;;;;;3.27;3.07;;;2.50;99.90;;;;;;5004187;28;20944;-90
2022/11/21 00:27:17;;;;;;;2.30;2.17;;;2.60;99.90;;;;;;5020667;28;20202;-90
2022/11/21 00:29:43;;;;;;;2.60;2.50;;;2.60;99.90;;;;;;5003703;28;20229;-90
2022/11/21 00:32:09;;;;;;;3.07;2.83;;;2.60;99.90;;;;;;5018888;28;20238;-92
2022/11/21 00:34:34;;;;;;;4.97;3.37;;;2.60;99.90;;;;;;5019599;28;20215;-90
2022/11/21 00:37:00;;;;;;;7.47;3.07;;;2.60;99.90;;;;;;5020219;28;20214;-90
2022/11/21 00:39:26;;;;;;;2.37;2.20;;;2.50;99.90;;;;;;5020938;28;20207;-91
2022/11/21 00:41:52;;;;;;;4.77;4.03;;;2.50;99.90;;;;;;5018338;28;20236;-90
2022/11/21 00:44:17;;;;;;;4.67;2.87;;;2.40;99.90;;;;;;5036494;28;20221;-90
2022/11/21 00:46:43;;;;;;;4.27;2.17;;;2.30;99.90;;;;;;5006903;28;20210;-90
2022/11/21 00:49:09;;;;;;;6.97;4.43;;;2.30;99.90;;;;;;5006273;28;20241;-91
2022/11/21 00:51:34;;;;;;;3.00;2.80;;;2.30;99.90;;;;;;5006851;28;20681;-90
2022/11/21 00:54:00;;;;;;;7.10;4.00;;;2.30;99.90;;;;;;5024497;28;20193;-90
2022/11/21 00:56:26;;;;;;;3.93;3.70;;;2.20;99.90;;;;;;5005991;28;20210;-90
2022/11/21 00:58:51;;;;;;;2.30;2.17;;;2.20;99.90;;;;;;5038465;28;20315;-90
2022/11/21 01:01:17;;;;;;;6.17;3.67;;;2.10;99.90;;;;;;5006558;28;20263;-90
2022/11/21 01:03:45;;;;;;;2.83;2.60;;;2.00;99.90;;;;;;5022312;28;20182;-90
2022/11/21 01:06:13;;;;;;;4.33;3.53;;;2.00;99.90;;;;;;5040369;28;20213;-90
2022/11/21 01:08:41;;;;;;;5.53;4.17;;;2.00;99.90;;;;;;5056059;28;20217;-90
2022/11/21 01:11:09;;;;;;;4.03;2.73;;;1.90;99.90;;;;;;5039909;28;20221;-92
2022/11/21 01:13:35;;;;;;;3.17;2.97;;;1.90;99.90;;;;;;5038849;28;20214;-90
2022/11/21 01:16:04;;;;;;;4.83;2.37;;;1.90;99.90;;;;;;5022966;28;20617;-90
2022/11/21 01:18:30;;;;;;;2.90;2.47;;;1.80;99.90;;;;;;5052807;28;21220;-90
2022/11/21 01:21:01;;;;;;;7.40;3.37;;;1.80;99.90;;;;;;5002904;28;20190;-90
2022/11/21 01:23:27;;;;;;;2.40;2.20;;;1.70;99.90;;;;;;5037425;28;20222;-91
2022/11/21 01:25:53;;;;;;;2.13;2.00;;;1.70;99.90;;;;;;5039019;28;20224;-89
2022/11/21 01:28:19;;;;;;;5.30;4.80;;;1.70;99.90;;;;;;5023495;28;20305;-90
2022/11/21 01:30:44;;;;;;;2.30;2.10;;;1.60;99.90;;;;;;5022357;28;20191;-89
2022/11/21 01:33:10;;;;;;;3.43;3.20;;;1.60;99.90;;;;;;5005809;28;20222;-90
2022/11/21 01:35:36;;;;;;;3.43;3.07;;;1.50;99.90;;;;;;5020726;28;21043;-90
2022/11/21 01:38:01;;;;;;;3.37;3.17;;;1.50;99.90;;;;;;5021876;28;20218;-90
2022/11/21 01:40:27;;;;;;;3.83;3.53;;;1.40;99.90;;;;;;5022094;28;20296;-90
2022/11/21 01:43:00;;;;;;;2.93;2.60;;;1.40;99.90;;;;;;5022808;28;20222;-90
2022/11/21 01:45:55;;;;;;;2.03;1.93;;;1.40;99.90;;;;;;5040567;28;20175;-90
2022/11/21 01:48:35;;;;;;;1.47;0.93;;;1.30;99.90;;;;;;5038446;28;20228;-90
2022/11/21 01:51:20;;;;;;;5.87;3.20;;;1.30;99.90;;;;;;5055050;28;20222;-90
2022/11/21 01:53:52;;;;;;;3.00;2.80;;;1.30;99.90;;;;;;5037959;28;20218;-90
2022/11/21 01:56:19;;;;;;;3.63;2.80;;;1.20;99.90;;;;;;5037495;28;20225;-89
2022/11/21 01:58:47;;;;;;;2.00;1.90;;;1.20;99.90;;;;;;5020338;28;20214;-90
2022/11/21 02:01:12;;;;;;;5.33;3.73;;;1.20;99.90;;;;;;5021697;28;20548;-90
2022/11/21 02:03:39;;;;;;;3.93;2.33;;;1.20;99.90;;;;;;5022027;28;20188;-90
2022/11/21 02:06:08;;;;;;;5.27;3.03;;;1.10;99.90;;;;;;5005346;28;20258;-91
2022/11/21 02:08:35;;;;;;;4.67;4.13;;;1.10;99.90;;;;;;5037262;28;20255;-90
2022/11/21 02:11:07;;;;;;;4.00;2.97;;;1.10;99.90;;;;;;5022122;28;20249;-90
2022/11/21 02:13:33;;;;;;;2.40;2.20;;;1.10;99.90;;;;;;5038423;28;20207;-90
2022/11/21 02:15:59;;;;;;;3.47;3.27;;;1.10;99.90;;;;;;5021503;28;20721;-90
2022/11/21 02:18:24;;;;;;;2.93;2.83;;;1.00;99.90;;;;;;5055658;28;20228;-90
2022/11/21 02:20:58;;;;;;;3.47;2.80;;;1.00;99.90;;;;;;5003957;28;20222;-90
2022/11/21 02:23:36;;;;;;;3.93;3.63;;;1.00;99.90;;;;;;5038760;28;20271;-92
2022/11/21 02:26:01;;;;;;;3.93;3.63;;;1.00;99.90;;;;;;5054020;28;20730;-90
2022/11/21 02:28:28;;;;;;;2.57;2.40;;;1.00;99.90;;;;;;5021726;28;20209;-90
2022/11/21 02:30:54;;;;;;;5.73;3.80;;;1.00;99.90;;;;;;5004997;28;20558;-90
2022/11/21 02:33:19;;;;;;;2.47;2.33;;;0.90;99.90;;;;;;5007241;28;20261;-90
2022/11/21 02:35:58;;;;;;;3.50;3.27;;;0.90;99.90;;;;;;5002117;28;20222;-90
2022/11/21 02:38:35;;;;;;;2.63;1.60;;;0.90;99.90;;;;;;5037659;28;20762;-90
2022/11/21 02:41:15;;;;;;;2.93;2.50;;;0.90;99.90;;;;;;5036181;28;20821;-91
2022/11/21 02:43:46;;;;;;;5.23;4.83;;;0.80;99.90;;;;;;5038160;28;20767;-90
2022/11/21 02:46:12;;;;;;;2.27;2.13;;;0.80;99.90;;;;;;5037492;28;20720;-90
2022/11/21 02:48:38;;;;;;;2.27;2.10;;;0.90;99.90;;;;;;5021147;28;20182;-90
2022/11/21 02:51:04;;;;;;;9.50;3.97;;;0.90;99.90;;;;;;5013415;28;20203;-91
2022/11/21 02:53:30;;;;;;;2.93;2.63;;;1.00;99.90;;;;;;5002610;28;20241;-91
2022/11/21 02:55:55;;;;;;;6.00;3.53;;;1.00;99.90;;;;;;5020314;28;20264;-90
2022/11/21 02:58:21;;;;;;;2.90;2.00;;;1.00;99.90;;;;;;5021290;28;20216;-90
2022/11/21 03:00:47;;;;;;;5.00;3.17;;;1.00;99.90;;;;;;5004590;28;20301;-91
2022/11/21 03:03:13;;;;;;;3.87;3.67;;;0.90;99.90;;;;;;5021522;28;20188;-91
2022/11/21 03:05:39;;;;;;;4.20;2.20;;;0.90;99.90;;;;;;5020228;28;20221;-91
2022/11/21 03:08:05;;;;;;;6.20;4.07;;;0.80;99.90;;;;;;5020496;28;20206;-90
2022/11/21 03:10:31;;;;;;;5.90;5.50;;;0.70;99.90;;;;;;5019818;28;20606;-90
2022/11/21 03:12:59;;;;;;;2.60;2.40;;;0.60;99.90;;;;;;5036324;28;20305;-90
2022/11/21 03:15:27;;;;;;;3.10;2.90;;;0.50;99.90;;;;;;5038286;28;20190;-90
2022/11/21 03:17:53;;;;;;;2.50;2.40;;;0.40;99.90;;;;;;5035671;28;20291;-89
2022/11/21 03:20:19;;;;;;;2.67;2.50;;;0.40;99.90;;;;;;5001844;28;20226;-89
2022/11/21 03:22:44;;;;;;;5.67;4.00;;;0.40;99.90;;;;;;5019248;28;20236;-90
2022/11/21 03:25:10;;;;;;;3.13;2.90;;;0.40;99.90;;;;;;5004236;28;20233;-91
2022/11/21 03:27:36;;;;;;;2.83;1.60;;;0.50;99.90;;;;;;5021065;28;20183;-90
2022/11/21 03:30:02;;;;;;;6.93;3.63;;;0.50;99.90;;;;;;5020548;28;20197;-90
2022/11/21 03:32:28;;;;;;;2.30;2.10;;;0.50;99.90;;;;;;5034958;28;20262;-89
2022/11/21 03:34:54;;;;;;;12.37;5.07;;;0.40;99.90;;;;;;5003598;28;20256;-89
2022/11/21 03:37:19;;;;;;;2.63;2.47;;;0.50;99.90;;;;;;5003664;28;20285;-89
2022/11/21 03:39:45;;;;;;;5.03;4.60;;;0.60;99.90;;;;;;5003722;28;20206;-90
2022/11/21 03:42:11;;;;;;;3.87;3.53;;;0.60;99.90;;;;;;5004971;28;21267;-89
2022/11/21 03:44:36;;;;;;;2.63;2.03;;;0.70;99.90;;;;;;5019878;28;20749;-91
2022/11/21 03:47:02;;;;;;;3.90;3.43;;;0.70;99.90;;;;;;5003381;28;20219;-90
2022/11/21 03:49:28;;;;;;;2.83;1.63;;;0.70;99.90;;;;;;5018613;28;20218;-89
2022/11/21 03:51:54;;;;;;;2.70;2.50;;;0.80;99.90;;;;;;5017824;28;20221;-90
2022/11/21 03:54:19;;;;;;;2.80;1.90;;;0.80;99.90;;;;;;5004545;28;20190;-91
2022/11/21 03:56:45;;;;;;;3.73;3.43;;;0.90;99.90;;;;;;5001713;28;20321;-91
2022/11/21 03:59:11;;;;;;;2.87;2.77;;;0.90;99.90;;;;;;5001733;28;20230;-90
2022/11/21 04:01:36;;;;;;;5.23;4.33;;;0.90;99.90;;;;;;5020685;28;20221;-90
2022/11/21 04:04:02;;;;;;;5.30;3.33;;;0.90;99.90;;;;;;5019561;28;20676;-90
2022/11/21 04:06:30;;;;;;;3.10;2.93;;;0.80;99.90;;;;;;5017768;28;20228;-90
2022/11/21 04:08:56;;;;;;;5.87;2.63;;;0.80;99.90;;;;;;5021001;28;20222;-91
2022/11/21 04:11:23;;;;;;;3.27;2.47;;;0.80;99.90;;;;;;5019589;28;20264;-90
2022/11/21 04:13:50;;;;;;;7.90;6.67;;;0.80;99.90;;;;;;5004466;28;20228;-90
2022/11/21 04:16:16;;;;;;;3.87;3.57;;;0.80;99.90;;;;;;5004058;28;20313;-90
2022/11/21 04:18:41;;;;;;;5.90;5.40;;;0.80;99.90;;;;;;5002642;28;20286;-90
2022/11/21 04:21:08;;;;;;;3.97;3.67;;;0.80;99.90;;;;;;5022472;28;20194;-90
2022/11/21 04:23:34;;;;;;;13.43;3.37;;;0.70;99.90;;;;;;5023100;28;20219;-91
2022/11/21 04:26:00;;;;;;;1.77;1.67;;;0.70;99.90;;;;;;5023707;28;20238;-91
2022/11/21 04:28:26;;;;;;;6.70;3.33;;;0.70;99.90;;;;;;5039304;28;20205;-90
2022/11/21 04:30:52;;;;;;;4.23;3.93;;;0.60;99.90;;;;;;5023646;28;20210;-90
2022/11/21 04:33:18;;;;;;;7.10;3.87;;;0.60;99.90;;;;;;5039846;28;20265;-91
2022/11/21 04:35:45;;;;;;;5.30;4.80;;;0.50;99.90;;;;;;5022932;28;20233;-91
2022/11/21 04:38:12;;;;;;;3.37;3.10;;;0.50;99.90;;;;;;5031676;28;20216;-91
2022/11/21 04:40:38;;;;;;;4.63;2.43;;;0.50;99.90;;;;;;5039320;28;20233;-90
2022/11/21 04:43:04;;;;;;;4.20;3.80;;;0.50;99.90;;;;;;5008230;28;20217;-90
2022/11/21 04:45:30;;;;;;;3.80;3.50;;;0.50;99.90;;;;;;5041366;28;20190;-90
2022/11/21 04:47:56;;;;;;;5.13;4.27;;;0.50;99.90;;;;;;5024106;28;20225;-90
2022/11/21 04:50:22;;;;;;;5.37;3.20;;;0.40;99.90;;;;;;5022167;28;20215;-90
2022/11/21 04:52:50;;;;;;;4.83;2.43;;;0.20;99.90;;;;;;5022770;28;20206;-89
2022/11/21 04:55:16;;;;;;;2.37;2.20;;;0.10;99.90;;;;;;5041894;28;21272;-90
2022/11/21 04:57:42;;;;;;;7.37;2.90;;;0.10;99.90;;;;;;5040300;28;20221;-91
2022/11/21 05:00:08;;;;;;;3.93;3.43;;;0.10;99.90;;;;;;5007076;28;20662;-89
2022/11/21 05:02:34;;;;;;;3.20;3.00;;;0.10;99.90;;;;;;5022990;28;20218;-90
2022/11/21 05:05:00;;;;;;;2.90;2.70;;;0.20;99.90;;;;;;5006661;28;20213;-90
2022/11/21 05:07:26;;;;;;;4.63;4.20;;;0.20;99.90;;;;;;5023385;28;20207;-89
2022/11/21 05:09:51;;;;;;;4.17;3.53;;;0.20;99.90;;;;;;5022373;28;20216;-91
2022/11/21 05:15:01;;;;;;;3.57;3.33;;;0.20;99.90;;;;;;5024379;28;20206;-89
2022/11/21 05:17:28;;;;;;;4.10;3.77;;;0.30;99.90;;;;;;5005849;28;20229;-90
2022/11/21 05:19:54;;;;;;;2.87;2.50;;;0.30;99.90;;;;;;5022956;28;20719;-89
2022/11/21 05:22:20;;;;;;;5.07;3.23;;;0.30;99.90;;;;;;5038282;28;20214;-91
2022/11/21 05:24:45;;;;;;;9.30;3.10;;;0.30;99.90;;;;;;5007442;28;20186;-91
2022/11/21 05:27:11;;;;;;;5.43;3.90;;;0.30;99.90;;;;;;5021920;28;20175;-91
2022/11/21 05:29:37;;;;;;;4.50;4.10;;;0.30;99.90;;;;;;5005643;28;20712;-90
2022/11/21 05:32:02;;;;;;;3.17;2.97;;;0.30;99.90;;;;;;5004687;28;20219;-90
2022/11/21 05:34:28;;;;;;;3.87;3.53;;;0.40;99.90;;;;;;5023268;28;21236;-90
2022/11/21 05:36:56;;;;;;;5.17;2.43;;;0.40;99.90;;;;;;5007473;28;20352;-89
2022/11/21 05:39:22;;;;;;;2.53;2.37;;;0.50;99.90;;;;;;5007174;28;20210;-90
2022/11/21 05:41:48;;;;;;;8.90;5.33;;;0.50;99.90;;;;;;5022072;28;20216;-90
2022/11/21 05:44:13;;;;;;;4.67;3.57;;;0.50;99.90;;;;;;5020775;28;20206;-90
2022/11/21 05:46:39;;;;;;;3.80;3.60;;;0.50;99.90;;;;;;5006834;28;20218;-89
2022/11/21 05:49:05;;;;;;;4.53;3.73;;;0.60;99.90;;;;;;5020826;28;20301;-90
2022/11/21 05:51:31;;;;;;;12.60;3.77;;;0.60;99.90;;;;;;5040915;28;20186;-92
2022/11/21 05:53:58;;;;;;;1.90;1.80;;;0.60;99.90;;;;;;5021413;28;20309;-91
2022/11/21 05:56:23;;;;;;;3.97;3.63;;;0.60;99.90;;;;;;5022370;28;20207;-91
2022/11/21 05:58:49;;;;;;;4.17;3.80;;;0.60;99.90;;;;;;5011629;28;20245;-89
2022/11/21 06:03:25;;;;;;;7.00;4.23;;;0.50;99.90;;;;;;4996661;28;20580;-89
2022/11/21 06:04:01;;;;;;;4.00;3.73;;;0.50;99.90;;;;;;5013680;28;20272;-89
2022/11/21 06:06:26;;;;;;;5.00;4.27;;;0.50;99.90;;;;;;5038548;28;20221;-89
2022/11/21 06:08:52;;;;;;;3.27;2.30;;;0.50;99.90;;;;;;5003076;28;20206;-91
2022/11/21 06:11:18;;;;;;;5.23;4.87;;;0.50;99.90;;;;;;5000258;28;20555;-90
2022/11/21 06:13:43;;;;;;;2.83;2.67;;;0.60;99.90;;;;;;4997908;28;20244;-89
2022/11/21 06:16:13;;;;;;;5.20;3.40;;;0.60;99.90;;;;;;5013801;28;20210;-90
2022/11/21 06:18:44;;;;;;;2.13;2.03;;;0.60;99.90;;;;;;5033616;28;20178;-90
2022/11/21 06:21:15;;;;;;;2.87;2.77;;;0.60;99.90;;;;;;5033043;28;20665;-89
2022/11/21 06:23:41;;;;;;;2.63;2.43;;;0.60;99.90;;;;;;5031689;28;20210;-88
2022/11/21 06:26:10;;;;;;;3.97;2.87;;;0.60;99.90;;;;;;4995345;28;20265;-91
2022/11/21 06:28:38;;;;;;;3.73;2.40;;;0.60;99.90;;;;;;5013697;28;20701;-88
2022/11/21 06:31:03;;;;;;;3.87;3.57;;;0.60;99.90;;;;;;5030758;28;20191;-90
2022/11/21 06:33:29;;;;;;;7.57;3.40;;;0.60;99.90;;;;;;5033129;28;20607;-91
2022/11/21 06:35:55;;;;;;;3.53;3.10;;;0.60;99.90;;;;;;5014014;28;20202;-90
2022/11/21 06:38:20;;;;;;;2.67;2.47;;;0.60;99.90;;;;;;5014806;28;20249;-90
2022/11/21 06:40:46;;;;;;;2.97;2.73;;;0.60;99.90;;;;;;5015515;28;20221;-92
2022/11/21 06:43:12;;;;;;;2.93;2.80;;;0.50;99.90;;;;;;4997382;28;20178;-90
2022/11/21 06:45:38;;;;;;;2.97;2.87;;;0.60;99.90;;;;;;5032259;28;20303;-89
2022/11/21 06:48:04;;;;;;;7.73;3.63;;;0.50;99.90;;;;;;4996742;28;20797;-91
2022/11/21 06:50:30;;;;;;;15.80;3.97;;;0.50;99.90;;;;;;5016816;28;20229;-90
2022/11/21 06:52:57;;;;;;;3.20;3.00;;;0.60;99.90;;;;;;5015367;28;20214;-90
2022/11/21 06:55:24;;;;;;;12.10;4.60;;;0.60;99.90;;;;;;5014752;28;20197;-89
2022/11/21 06:57:49;;;;;;;5.70;4.93;;;0.50;99.90;;;;;;5027032;28;20209;-90
2022/11/21 07:00:16;;;;;;;16.13;5.43;;;0.60;99.90;;;;;;4995615;28;20210;-90
2022/11/21 07:02:41;;;;;;;2.97;2.30;;;0.70;99.90;;;;;;4998765;28;20293;-90
2022/11/21 07:05:07;;;;;;;4.83;2.60;;;0.70;99.90;;;;;;5011327;28;20813;-91
2022/11/21 07:07:33;;;;;;;4.40;3.07;;;0.80;99.90;;;;;;4997782;28;20659;-90
2022/11/21 07:09:59;;;;;;;5.23;2.93;;;0.80;99.90;;;;;;5031411;28;20209;-92
2022/11/21 07:15:09;;;;;;;5.63;5.20;;;0.70;99.90;;;;;;5020262;28;20210;-89
2022/11/21 07:17:35;;;;;;;3.93;3.63;;;0.80;99.90;;;;;;5020471;28;20304;-91
2022/11/21 07:20:01;;;;;;;4.40;4.00;;;0.80;99.90;;;;;;5020144;28;20321;-90
2022/11/21 07:22:26;;;;;;;5.80;4.57;;;0.90;99.90;;;;;;5016420;28;20249;-91
2022/11/21 07:24:52;;;;;;;7.00;5.53;;;0.90;99.90;;;;;;5002589;28;20189;-89
2022/11/21 07:27:18;;;;;;;5.20;3.23;;;0.90;99.90;;;;;;5000286;28;20223;-90
2022/11/21 07:29:43;;;;;;;3.77;3.27;;;0.80;99.90;;;;;;5027819;28;20225;-88
2022/11/21 07:32:09;;;;;;;3.83;3.53;;;0.90;99.90;;;;;;5015253;28;20910;-87
2022/11/21 07:34:35;;;;;;;2.50;2.40;;;0.80;99.90;;;;;;5012766;28;20687;-88
2022/11/21 07:37:01;;;;;;;4.70;3.70;;;0.90;99.90;;;;;;4998512;28;20697;-88
2022/11/21 07:39:26;;;;;;;8.73;4.17;;;0.90;99.90;;;;;;5012874;28;20233;-88
2022/11/21 07:41:52;;;;;;;15.17;5.50;;;0.90;99.90;;;;;;4999433;28;20202;-91
2022/11/21 07:44:18;;;;;;;4.50;4.17;;;1.00;99.90;;;;;;5017194;28;20213;-90
2022/11/21 07:46:43;;;;;;;6.80;4.23;;;1.00;99.90;;;;;;5007725;28;20600;-93
2022/11/21 07:49:09;;;;;;;4.30;3.87;;;1.00;99.90;;;;;;5021416;28;20191;-92
2022/11/21 07:51:35;;;;;;;6.73;4.77;;;1.00;99.90;;;;;;4999250;28;20551;-93
2022/11/21 07:54:01;;;;;;;2.73;2.63;;;1.00;99.90;;;;;;5013068;28;20213;-90
2022/11/21 07:56:27;;;;;;;2.97;2.77;;;1.00;99.90;;;;;;5036414;28;20215;-91
2022/11/21 07:58:52;;;;;;;7.63;5.47;;;0.90;99.90;;;;;;5003171;28;20214;-91
2022/11/21 08:01:18;;;;;;;5.13;3.20;;;0.90;99.90;;;;;;5018959;28;20546;-91
2022/11/21 08:03:44;;;;;;;4.83;4.53;;;0.90;99.90;;;;;;5006680;28;20235;-91
2022/11/21 08:06:12;;;;;;;9.53;2.30;;;0.90;99.90;;;;;;5003130;28;20684;-91
2022/11/21 08:08:37;;;;;;;4.87;4.47;;;0.80;99.90;;;;;;5016851;28;20301;-89
2022/11/21 08:11:05;;;;;;;2.77;2.57;;;0.80;99.90;;;;;;5019099;28;20306;-88
2022/11/21 08:13:31;;;;;;;3.03;1.87;;;0.90;99.90;;;;;;5037281;28;20195;-90
2022/11/21 08:15:57;;;;;;;4.20;3.97;;;0.90;99.90;;;;;;5016890;28;20185;-87
2022/11/21 08:18:22;;;;;;;6.20;2.70;;;0.90;99.90;;;;;;5015468;28;20210;-88
2022/11/21 08:20:48;;;;;;;3.57;3.30;;;0.80;99.90;;;;;;5034581;28;20231;-89
2022/11/21 08:23:14;;;;;;;4.23;3.93;;;0.80;99.90;;;;;;5034859;28;20244;-90
2022/11/21 08:25:41;;;;;;;5.63;4.23;;;0.90;99.90;;;;;;5019154;28;20301;-88
2022/11/21 08:28:08;;;;;;;5.03;4.60;;;0.90;99.90;;;;;;5036968;28;20250;-89
2022/11/21 08:30:35;;;;;;;4.20;2.53;;;0.90;99.90;;;;;;5033521;28;20207;-87
2022/11/21 08:33:01;;;;;;;4.43;4.23;;;1.00;99.90;;;;;;5034670;28;20240;-88
2022/11/21 08:35:28;;;;;;;3.47;2.80;;;1.10;99.90;;;;;;5030655;28;20301;-88
2022/11/21 08:37:58;;;;;;;1.40;1.30;;;1.10;99.90;;;;;;5018514;28;20214;-90
2022/11/21 08:40:26;;;;;;;4.07;3.47;;;1.20;99.90;;;;;;5050752;28;20426;-88
2022/11/21 08:43:05;;;;;;;4.00;3.60;;;1.20;99.90;;;;;;5034318;28;20255;-89
2022/11/21 08:45:33;;;;;;;3.57;3.27;;;1.20;99.90;;;;;;5021719;28;20392;-89
2022/11/21 08:48:00;;;;;;;5.97;3.97;;;1.20;99.90;;;;;;5035264;28;20512;-89
2022/11/21 08:50:27;;;;;;;3.03;2.83;;;1.10;99.90;;;;;;5034931;28;20243;-88
2022/11/21 08:52:58;;;;;;;1.80;1.70;;;1.10;99.90;;;;;;5034487;28;20617;-88
2022/11/21 08:55:23;;;;;;;4.07;3.60;;;1.20;99.90;;;;;;5035540;28;20182;-88
2022/11/21 08:57:49;;;;;;;7.10;6.50;;;1.20;99.90;;;;;;5019855;28;20301;-89
2022/11/21 09:00:15;;;;;;;3.13;2.90;;;1.20;99.90;;;;;;5015970;28;20305;-86
2022/11/21 09:02:41;;;;;;;2.87;2.67;;;1.30;99.90;;;;;;5016860;28;20242;-90
2022/11/21 09:05:07;;;;;;;4.87;4.57;;;1.40;99.90;;;;;;5015775;28;20567;-89
2022/11/21 09:07:33;;;;;;;4.70;4.33;;;1.40;99.90;;;;;;5017539;28;20194;-92
2022/11/21 09:09:59;;;;;;;3.27;3.03;;;1.50;99.90;;;;;;5007985;28;20383;-90
2022/11/21 09:12:24;;;;;;;3.17;2.97;;;1.60;99.90;;;;;;5016656;28;20253;-91
2022/11/21 09:20:19;;;;;;;7.33;4.57;;;1.70;99.90;;;;;;5037082;28;20230;-93
2022/11/21 09:22:45;;;;;;;5.60;5.17;;;1.70;99.90;;;;;;5005992;28;20221;-92
2022/11/21 09:25:11;;;;;;;2.10;2.00;;;1.70;99.90;;;;;;5003296;28;20293;-91
2022/11/21 09:27:37;;;;;;;4.63;4.33;;;1.70;99.90;;;;;;5008258;28;20229;-92
2022/11/21 09:30:03;;;;;;;5.43;5.03;;;1.80;99.90;;;;;;5026951;28;20221;-91
2022/11/21 09:32:29;;;;;;;3.37;3.17;;;1.80;99.90;;;;;;5006089;28;20562;-94
2022/11/21 09:34:55;;;;;;;1.13;1.13;;;1.80;99.90;;;;;;5032204;28;20229;-93
2022/11/21 09:37:21;;;;;;;2.63;2.53;;;1.90;99.90;;;;;;5006720;28;20188;-91
2022/11/21 09:39:47;;;;;;;5.67;4.37;;;1.80;99.90;;;;;;5019266;28;20214;-92
2022/11/21 09:42:38;;;;;;;3.50;3.30;;;1.90;99.90;;;;;;5004455;28;20224;-92
2022/11/21 09:45:26;;;;;;;2.67;2.23;;;1.90;99.90;;;;;;5026762;28;20214;-91
2022/11/21 09:47:52;;;;;;;6.70;3.90;;;1.80;99.90;;;;;;5033440;28;20687;-92
2022/11/21 09:50:26;;;;;;;3.10;2.80;;;1.80;99.90;;;;;;5002614;28;20230;-92
2022/11/21 09:53:13;;;;;;;2.00;1.90;;;1.90;99.90;;;;;;5055720;28;20210;-93
2022/11/21 09:56:25;;;;;;;2.23;2.10;;;1.90;99.90;;;;;;5038308;28;21321;-91
2022/11/21 09:59:16;;;;;;;2.87;2.67;;;2.00;99.90;;;;;;5030940;28;20816;-91
2022/11/21 10:01:42;;;;;;;3.77;3.57;;;2.00;99.90;;;;;;5038260;28;20673;-92
2022/11/21 10:04:08;;;;;;;2.83;2.63;;;2.10;99.90;;;;;;5035905;28;20269;-92
2022/11/21 10:07:04;;;;;;;1.70;1.60;;;2.20;99.90;;;;;;5017844;28;20733;-93
2022/11/21 10:10:07;;;;;;;1.80;1.80;;;2.30;99.90;;;;;;5031380;28;20229;-92
2022/11/21 10:12:40;;;;;;;3.50;3.17;;;2.60;99.90;;;;;;5030024;28;20328;-92
2022/11/21 10:15:25;;;;;;;8.17;7.47;;;2.70;99.90;;;;;;5031310;28;20615;-92
2022/11/21 10:18:29;;;;;;;2.43;2.23;;;3.00;99.90;;;;;;5031958;28;20222;-91
2022/11/21 10:21:19;;;;;;;4.80;2.90;;;3.00;99.90;;;;;;5013549;28;20231;-92
2022/11/21 10:24:15;;;;;;;2.20;2.00;;;3.00;99.90;;;;;;5034589;28;20225;-93
2022/11/21 10:26:52;;;;;;;2.47;2.37;;;3.10;99.90;;;;;;5033742;28;20221;-92
2022/11/21 10:29:29;;;;;;;3.77;3.40;;;3.00;99.90;;;;;;5035008;28;20890;-91
2022/11/21 10:32:00;;;;;;;3.77;2.90;;;2.90;99.90;;;;;;5035260;28;20218;-92
2022/11/21 10:34:29;;;;;;;3.13;2.13;;;2.90;99.90;;;;;;5032597;28;20775;-92
2022/11/21 10:37:01;;;;;;;3.70;2.23;;;2.90;99.90;;;;;;5034524;28;20426;-92
2022/11/21 10:39:47;;;;;;;2.40;2.20;;;3.00;99.90;;;;;;5029920;28;20280;-92
2022/11/21 10:42:35;;;;;;;4.07;3.70;;;3.10;99.90;;;;;;5034279;28;20214;-91
2022/11/21 10:45:18;;;;;;;1.83;1.73;;;3.20;99.90;;;;;;5032608;28;20761;-93
2022/11/21 10:47:48;;;;;;;2.50;1.50;;;3.30;99.90;;;;;;5020032;28;20224;-93
2022/11/21 10:50:43;;;;;;;3.53;2.70;;;3.40;99.90;;;;;;5043812;28;20213;-92
2022/11/21 10:56:12;;;;;;;1.87;1.20;;;3.50;99.90;;;;;;5030846;28;20206;-89
2022/11/21 10:58:51;;;;;;;2.27;2.07;;;3.40;99.90;;;;;;5032608;28;20213;-88
2022/11/21 11:01:27;;;;;;;2.20;2.10;;;3.50;99.90;;;;;;5035624;28;20293;-88
2022/11/21 11:04:11;;;;;;;4.30;1.53;;;3.50;99.90;;;;;;5036177;28;20189;-89
2022/11/21 11:06:45;;;;;;;2.17;2.03;;;3.50;99.90;;;;;;5049792;28;20241;-89
2022/11/21 11:09:27;;;;;;;4.60;3.80;;;3.40;99.90;;;;;;5033561;28;20221;-91
2022/11/21 11:12:15;;;;;;;2.10;2.00;;;3.40;99.90;;;;;;5033884;28;20719;-90
2022/11/21 11:14:55;;;;;;;4.00;2.10;;;3.40;99.90;;;;;;5035110;28;20309;-89
2022/11/21 11:17:32;;;;;;;2.13;2.00;;;3.60;99.90;;;;;;5031400;28;20214;-88
2022/11/21 11:20:01;;;;;;;3.43;2.90;;;3.70;99.90;;;;;;5031998;28;20229;-89
2022/11/21 11:22:28;;;;;;;4.93;2.63;;;3.80;99.90;;;;;;5033252;28;20619;-89
2022/11/21 11:24:54;;;;;;;3.63;2.70;;;3.80;99.90;;;;;;5029201;28;20226;-89
2022/11/21 11:27:27;;;;;;;1.43;1.00;;;3.90;99.90;;;;;;5034733;28;20248;-90
2022/11/21 11:29:53;;;;;;;4.73;1.50;;;3.90;99.90;;;;;;5017501;28;20701;-89
2022/11/21 11:32:19;;;;;;;2.47;2.27;;;4.00;99.90;;;;;;5019753;28;20429;-89
2022/11/21 11:35:24;;;;;;;1.60;1.50;;;4.10;99.90;;;;;;5024237;28;20230;-90
2022/11/21 11:38:02;;;;;;;2.20;1.60;;;4.10;99.90;;;;;;5040411;28;20889;-91
2022/11/21 11:40:46;;;;;;;1.23;1.23;;;4.10;99.90;;;;;;5018191;28;20237;-91
2022/11/21 11:52:54;;;;;;;3.23;2.93;;;4.20;99.90;;;;;;5031256;28;20221;-89
2022/11/21 11:55:47;;;;;;;3.17;2.63;;;4.20;99.90;;;;;;5031715;28;20186;-89
2022/11/21 11:58:26;;;;;;;1.80;0.97;;;4.20;99.90;;;;;;5035365;28;20221;-89
2022/11/21 12:00:58;;;;;;;1.50;1.37;;;4.30;99.90;;;;;;5030683;28;20285;-89
2022/11/21 12:03:47;;;;;;;1.27;1.27;;;4.30;99.90;;;;;;5030408;28;20223;-89
2022/11/21 12:06:18;;;;;;;3.47;2.30;;;4.30;99.90;;;;;;5032267;28;20214;-88
2022/11/21 12:09:13;;;;;;;4.43;2.93;;;4.30;99.90;;;;;;5034989;28;20702;-88
2022/11/21 12:12:07;;;;;;;1.50;1.40;;;4.40;99.90;;;;;;5027924;28;20706;-88
2022/11/21 12:18:14;;;;;;;1.07;1.07;;;4.60;99.90;;;;;;5038061;28;20695;-89
2022/11/21 12:20:52;;;;;;;5.53;2.30;;;4.60;99.90;;;;;;5031146;28;20902;-89
2022/11/21 12:23:18;;;;;;;2.63;2.17;;;4.60;99.90;;;;;;5032454;28;20233;-89
2022/11/21 12:25:53;;;;;;;2.00;1.90;;;4.70;99.90;;;;;;5018008;28;20226;-89
2022/11/21 12:28:44;;;;;;;2.00;1.90;;;4.70;99.90;;;;;;5032426;28;20654;-89
2022/11/21 12:31:27;;;;;;;1.77;1.67;;;4.80;99.90;;;;;;5033684;28;20642;-88
2022/11/21 12:34:28;;;;;;;5.63;2.70;;;4.90;99.90;;;;;;5034525;28;20578;-88
2022/11/21 12:37:27;;;;;;;5.70;1.57;;;5.00;99.90;;;;;;5033144;28;20249;-89
2022/11/21 12:40:08;;;;;;;3.90;1.67;;;5.10;99.90;;;;;;5032900;28;20221;-89
2022/11/21 12:42:49;;;;;;;3.73;2.87;;;5.20;99.90;;;;;;5034273;28;20276;-89
2022/11/21 12:45:32;;;;;;;2.00;1.90;;;5.20;99.90;;;;;;5037090;28;20781;-89
2022/11/21 12:54:59;;;;;;;2.30;2.10;;;5.30;99.90;;;;;;5014465;28;20253;-90
2022/11/21 12:57:43;;;;;;;2.27;2.17;;;5.30;99.90;;;;;;5033639;28;20590;-90
2022/11/21 13:00:25;;;;;;;1.80;1.70;;;5.40;99.90;;;;;;5037192;28;21387;-90
2022/11/21 13:03:19;;;;;;;2.27;2.10;;;5.30;99.90;;;;;;5034681;28;20678;-89
2022/11/21 13:05:49;;;;;;;3.60;2.30;;;5.40;99.90;;;;;;5034821;28;20234;-88
2022/11/21 13:08:28;;;;;;;3.37;2.03;;;5.40;99.90;;;;;;5035559;28;20218;-89
2022/11/21 13:14:29;;;;;;;2.87;2.53;;;5.40;99.90;;;;;;5037589;28;20233;-88
2022/11/21 13:17:02;;;;;;;2.67;2.33;;;5.50;99.90;;;;;;5035906;28;20765;-87
2022/11/21 13:19:55;;;;;;;1.30;1.17;;;5.50;99.90;;;;;;5033342;28;20217;-87
2022/11/21 13:22:36;;;;;;;1.47;1.37;;;5.50;99.90;;;;;;5035007;28;20193;-87
2022/11/21 13:25:02;;;;;;;1.60;1.50;;;5.60;99.90;;;;;;5036411;28;20205;-88
2022/11/21 13:27:41;;;;;;;2.60;2.40;;;5.50;99.90;;;;;;5035592;28;20226;-88
2022/11/21 13:30:10;;;;;;;3.17;2.87;;;5.60;99.90;;;;;;5036280;28;20837;-88
2022/11/21 13:32:48;;;;;;;5.83;2.83;;;5.60;99.90;;;;;;5035498;28;20218;-88
2022/11/21 13:35:13;;;;;;;1.53;1.40;;;5.70;99.90;;;;;;5035420;28;20784;-88
2022/11/21 13:37:48;;;;;;;2.87;2.67;;;5.70;99.90;;;;;;5034225;28;20222;-89
2022/11/21 13:40:26;;;;;;;1.73;1.60;;;5.70;99.90;;;;;;5035029;28;20217;-89
2022/11/21 13:43:19;;;;;;;4.60;2.67;;;5.70;99.90;;;;;;5037329;28;20214;-89
2022/11/21 13:45:49;;;;;;;5.00;3.10;;;5.80;99.90;;;;;;5034470;28;20393;-88
2022/11/21 13:48:27;;;;;;;2.20;2.10;;;5.90;99.90;;;;;;5023143;28;20249;-88
2022/11/21 13:51:05;;;;;;;2.43;2.33;;;5.70;99.90;;;;;;5033672;28;20248;-88